Time;durP1;ratioP1;P1;durP2;ratioP2;P2;SDS_P1;SDS_P2;PMS_P1;PMS_P2;Temp;Humidity;BMP_temperature;BMP_pressure;BME280_temperature;BME280_humidity;BME280_pressure;Samples;Min_cycle;Max_cycle;Signal;HPM_P1;HPM_P2
2023/01/17 00:01:59;;;;;;;2.15;0.70;;;5.50;99.90;;;;;;4936414;28;20018;-89
2023/01/17 00:10:00;;;;;;;1.15;0.70;;;5.50;99.90;;;;;;4965763;28;20401;-88
2023/01/17 00:12:30;;;;;;;3.33;1.23;;;5.40;99.90;;;;;;4947262;28;20023;-90
2023/01/17 00:14:57;;;;;;;2.28;0.80;;;5.40;99.90;;;;;;4941358;28;20246;-91
2023/01/17 00:17:25;;;;;;;3.00;1.10;;;5.40;99.90;;;;;;4937601;28;20034;-90
2023/01/17 01:35:24;;;;;;;3.80;1.52;;;4.20;99.90;;;;;;4976458;28;20029;-89
2023/01/17 01:37:49;;;;;;;3.40;1.70;;;4.20;99.90;;;;;;4956384;28;20316;-88
2023/01/17 01:40:17;;;;;;;4.18;1.60;;;4.10;99.90;;;;;;4949448;28;20109;-87
2023/01/17 01:42:51;;;;;;;3.80;1.40;;;4.10;99.90;;;;;;4928657;28;20519;-88
2023/01/17 01:45:29;;;;;;;2.97;1.50;;;4.10;99.90;;;;;;4933277;28;20040;-89
2023/01/17 01:48:42;;;;;;;4.33;1.60;;;4.00;99.90;;;;;;4931409;28;20046;-89
2023/01/17 01:51:12;;;;;;;2.50;1.50;;;4.00;99.90;;;;;;4945779;28;20590;-88
2023/01/17 01:53:41;;;;;;;2.72;1.40;;;4.00;99.90;;;;;;4949779;28;20727;-88
2023/01/17 01:56:11;;;;;;;2.78;1.52;;;4.00;99.90;;;;;;4956971;28;20027;-89
2023/01/17 01:58:38;;;;;;;3.13;1.40;;;3.90;99.90;;;;;;4941491;28;20097;-88
2023/01/17 02:01:07;;;;;;;3.60;1.60;;;3.90;99.90;;;;;;4931846;28;20030;-88
2023/01/17 02:03:34;;;;;;;2.83;1.27;;;3.90;99.90;;;;;;4936014;28;20100;-89
2023/01/17 02:06:10;;;;;;;9.63;1.88;;;3.90;99.90;;;;;;4942152;28;20070;-88
2023/01/17 02:08:36;;;;;;;4.43;1.73;;;3.90;99.90;;;;;;4932910;28;20026;-90
2023/01/17 02:11:02;;;;;;;2.90;1.60;;;3.90;99.90;;;;;;4941432;28;20072;-89
2023/01/17 02:13:28;;;;;;;3.38;1.77;;;3.80;99.90;;;;;;4932876;28;20372;-88
2023/01/17 02:16:13;;;;;;;3.60;1.58;;;3.80;99.90;;;;;;4935437;28;20514;-88
2023/01/17 02:18:54;;;;;;;3.90;1.70;;;3.80;99.90;;;;;;4944260;28;20391;-89
2023/01/17 02:21:25;;;;;;;4.77;1.60;;;3.80;99.90;;;;;;4970045;28;20057;-88
2023/01/17 02:24:06;;;;;;;2.97;1.58;;;3.80;99.90;;;;;;4949832;28;20141;-88
2023/01/17 02:26:50;;;;;;;4.15;1.70;;;3.80;99.90;;;;;;4945714;28;20454;-88
2023/01/17 02:29:43;;;;;;;2.65;1.70;;;3.80;99.90;;;;;;4943749;28;20480;-90
2023/01/17 02:32:22;;;;;;;2.10;1.30;;;3.90;99.90;;;;;;4944165;28;20034;-89
2023/01/17 02:35:11;;;;;;;3.03;1.30;;;3.90;99.90;;;;;;4927218;28;20229;-89
2023/01/17 02:37:55;;;;;;;2.75;1.48;;;3.90;99.90;;;;;;4939733;28;20487;-89
2023/01/17 02:40:47;;;;;;;2.80;1.50;;;3.90;99.90;;;;;;4975671;28;20033;-89
2023/01/17 02:43:14;;;;;;;3.35;1.33;;;4.00;99.90;;;;;;4932679;28;20173;-88
2023/01/17 02:45:40;;;;;;;3.20;1.60;;;4.00;99.90;;;;;;4960120;28;20679;-89
2023/01/17 02:48:09;;;;;;;3.67;1.50;;;4.10;99.90;;;;;;4934066;28;20049;-90
2023/01/17 02:50:48;;;;;;;3.10;1.50;;;4.10;99.90;;;;;;4917257;28;20026;-89
2023/01/17 02:53:28;;;;;;;2.70;1.30;;;4.10;99.90;;;;;;4945141;28;20032;-88
2023/01/17 02:56:17;;;;;;;3.15;1.50;;;4.10;99.90;;;;;;4957131;28;20120;-88
2023/01/17 02:58:58;;;;;;;3.53;1.70;;;4.10;99.90;;;;;;4952928;28;20018;-88
2023/01/17 03:01:24;;;;;;;3.25;1.42;;;4.20;99.90;;;;;;4945005;28;20861;-88
2023/01/17 03:04:08;;;;;;;2.97;1.57;;;4.20;99.90;;;;;;4959562;28;20035;-88
2023/01/17 03:07:00;;;;;;;4.23;1.63;;;4.20;99.90;;;;;;4958255;28;20926;-88
2023/01/17 03:09:26;;;;;;;5.95;1.48;;;4.20;99.90;;;;;;4955384;28;20448;-89
2023/01/17 03:11:52;;;;;;;3.83;1.85;;;4.20;99.90;;;;;;4943441;28;20104;-88
2023/01/17 03:14:18;;;;;;;3.13;1.60;;;4.20;99.90;;;;;;4970214;28;20328;-88
2023/01/17 03:16:44;;;;;;;4.20;2.00;;;4.20;99.90;;;;;;4937190;28;20486;-89
2023/01/17 03:19:13;;;;;;;4.15;1.70;;;4.20;99.90;;;;;;4924043;28;20584;-90
2023/01/17 03:21:39;;;;;;;3.72;2.00;;;4.20;99.90;;;;;;4962744;28;20415;-89
2023/01/17 03:24:05;;;;;;;2.55;1.70;;;4.20;99.90;;;;;;4942061;28;20030;-88
2023/01/17 03:26:31;;;;;;;3.13;1.80;;;4.20;99.90;;;;;;4943895;28;20088;-89
2023/01/17 03:28:57;;;;;;;4.85;1.80;;;4.10;99.90;;;;;;4940776;28;20117;-88
2023/01/17 03:31:23;;;;;;;4.45;1.70;;;4.10;99.90;;;;;;4946618;28;20158;-88
2023/01/17 03:33:49;;;;;;;3.55;1.95;;;4.10;99.90;;;;;;4950072;28;20061;-88
2023/01/17 03:36:14;;;;;;;3.40;1.70;;;4.10;99.90;;;;;;4919370;28;20245;-88
2023/01/17 03:38:40;;;;;;;3.20;1.50;;;4.00;99.90;;;;;;4946250;28;20085;-88
2023/01/17 03:41:07;;;;;;;3.70;1.67;;;4.00;99.90;;;;;;4937908;28;20037;-88
2023/01/17 03:43:32;;;;;;;4.03;1.70;;;4.00;99.90;;;;;;4944209;28;20059;-88
2023/01/17 03:46:04;;;;;;;3.60;1.80;;;3.90;99.90;;;;;;4961969;28;20707;-88
2023/01/17 03:48:30;;;;;;;3.22;1.80;;;3.90;99.90;;;;;;4931496;28;20045;-89
2023/01/17 03:50:56;;;;;;;6.50;1.90;;;3.80;99.90;;;;;;4906299;28;20226;-88
2023/01/17 03:53:23;;;;;;;4.35;2.30;;;3.80;99.90;;;;;;4961548;28;20112;-88
2023/01/17 03:55:49;;;;;;;5.75;2.30;;;3.70;99.90;;;;;;4944965;28;20077;-90
2023/01/17 03:58:15;;;;;;;4.30;2.30;;;3.70;99.90;;;;;;4960713;28;20029;-89
2023/01/17 04:00:43;;;;;;;5.10;2.37;;;3.60;99.90;;;;;;4957384;28;20030;-89
2023/01/17 04:03:10;;;;;;;5.82;2.20;;;3.60;99.90;;;;;;4951350;28;20299;-88
2023/01/17 04:05:35;;;;;;;4.13;2.03;;;3.60;99.90;;;;;;4943998;28;20031;-88
2023/01/17 04:08:02;;;;;;;4.63;2.05;;;3.50;99.90;;;;;;4937619;28;20216;-88
2023/01/17 04:10:29;;;;;;;4.68;2.30;;;3.50;99.90;;;;;;4947203;28;20094;-88
2023/01/17 04:12:56;;;;;;;4.73;2.20;;;3.40;99.90;;;;;;4940112;28;20335;-87
2023/01/17 04:15:21;;;;;;;4.07;2.15;;;3.40;99.90;;;;;;4941531;28;20602;-87
2023/01/17 04:17:47;;;;;;;3.53;2.00;;;3.40;99.90;;;;;;4928393;28;20029;-88
2023/01/17 04:20:28;;;;;;;4.30;2.33;;;3.40;99.90;;;;;;4940967;28;20393;-88
2023/01/17 04:22:53;;;;;;;5.13;2.10;;;3.30;99.90;;;;;;4927946;28;20033;-88
2023/01/17 04:25:19;;;;;;;6.03;2.40;;;3.30;99.90;;;;;;4940020;28;20019;-88
2023/01/17 04:27:45;;;;;;;5.13;2.40;;;3.30;99.90;;;;;;4934706;28;20587;-88
2023/01/17 04:30:11;;;;;;;6.03;2.40;;;3.30;99.90;;;;;;4951276;28;20296;-88
2023/01/17 04:32:37;;;;;;;5.43;2.40;;;3.20;99.90;;;;;;4937837;28;20128;-88
2023/01/17 04:35:03;;;;;;;5.60;2.40;;;3.20;99.90;;;;;;4930852;28;20072;-88
2023/01/17 04:37:29;;;;;;;5.63;2.05;;;3.20;99.90;;;;;;4945301;28;20763;-88
2023/01/17 04:39:55;;;;;;;5.07;2.10;;;3.10;99.90;;;;;;4931726;28;20320;-88
2023/01/17 04:42:21;;;;;;;5.22;2.67;;;3.10;99.90;;;;;;4939324;28;20038;-89
2023/01/17 04:44:46;;;;;;;6.90;2.80;;;3.10;99.90;;;;;;4938972;28;20026;-88
2023/01/17 04:47:13;;;;;;;6.85;3.00;;;3.10;99.90;;;;;;4943552;28;20095;-88
2023/01/17 04:49:39;;;;;;;5.13;2.63;;;3.00;99.90;;;;;;4938171;28;20037;-88
2023/01/17 04:52:05;;;;;;;5.68;2.97;;;3.00;99.90;;;;;;4948236;28;20225;-87
2023/01/17 04:54:31;;;;;;;6.30;3.10;;;3.00;99.90;;;;;;4924532;28;20026;-89
2023/01/17 04:56:57;;;;;;;5.78;2.88;;;3.00;99.90;;;;;;4956434;28;20250;-88
2023/01/17 04:59:23;;;;;;;7.72;3.47;;;2.90;99.90;;;;;;4940592;28;20038;-88
2023/01/17 05:01:49;;;;;;;7.30;3.53;;;2.90;99.90;;;;;;4942909;28;20030;-88
2023/01/17 05:04:15;;;;;;;5.63;2.90;;;2.90;99.90;;;;;;4957909;28;20050;-88
2023/01/17 05:06:40;;;;;;;6.53;3.00;;;2.90;99.90;;;;;;4928995;28;20031;-88
2023/01/17 05:09:06;;;;;;;6.83;2.90;;;2.90;99.90;;;;;;4918809;28;20736;-88
2023/01/17 05:11:32;;;;;;;7.22;2.92;;;2.90;99.90;;;;;;4942068;28;20039;-88
2023/01/17 05:13:58;;;;;;;7.32;3.20;;;2.80;99.90;;;;;;4940206;28;20029;-88
2023/01/17 05:16:24;;;;;;;6.33;3.10;;;2.80;99.90;;;;;;4942386;28;20048;-88
2023/01/17 05:18:51;;;;;;;6.50;3.10;;;2.80;99.90;;;;;;4953238;28;20277;-88
2023/01/17 05:21:17;;;;;;;7.07;3.10;;;2.80;99.90;;;;;;4945546;28;20439;-89
2023/01/17 05:23:43;;;;;;;5.55;2.97;;;2.80;99.90;;;;;;4933010;28;20018;-88
2023/01/17 05:26:09;;;;;;;6.40;2.80;;;2.80;99.90;;;;;;4947998;28;20022;-88
2023/01/17 05:28:35;;;;;;;5.63;3.15;;;2.80;99.90;;;;;;4941155;28;20497;-88
2023/01/17 05:31:01;;;;;;;5.73;2.83;;;2.80;99.90;;;;;;4948109;28;20101;-88
2023/01/17 05:33:26;;;;;;;5.35;2.70;;;2.80;99.90;;;;;;4959822;28;20379;-88
2023/01/17 05:35:52;;;;;;;5.57;2.70;;;2.80;99.90;;;;;;4938490;28;20045;-88
2023/01/17 05:38:18;;;;;;;4.60;2.40;;;2.80;99.90;;;;;;4934012;28;20029;-88
2023/01/17 05:40:43;;;;;;;6.30;2.97;;;2.80;99.90;;;;;;4927661;28;20026;-88
2023/01/17 05:43:09;;;;;;;5.57;2.63;;;2.80;99.90;;;;;;4954214;28;20299;-88
2023/01/17 05:45:35;;;;;;;6.20;2.80;;;2.80;99.90;;;;;;4941827;28;20026;-88
2023/01/17 05:48:02;;;;;;;4.63;2.47;;;2.80;99.90;;;;;;4934353;28;20261;-88
2023/01/17 05:50:37;;;;;;;4.78;2.53;;;2.80;99.90;;;;;;4953817;28;20030;-88
2023/01/17 05:53:09;;;;;;;6.07;2.70;;;2.80;99.90;;;;;;4943333;28;20141;-88
2023/01/17 05:55:35;;;;;;;5.55;2.83;;;2.80;99.90;;;;;;4940926;28;20054;-88
2023/01/17 05:58:02;;;;;;;6.43;2.60;;;2.80;99.90;;;;;;4947797;28;20129;-88
2023/01/17 06:00:28;;;;;;;6.75;3.22;;;2.80;99.90;;;;;;4941995;28;20074;-88
2023/01/17 06:02:55;;;;;;;7.43;3.55;;;2.80;99.90;;;;;;4923734;28;20236;-88
2023/01/17 06:05:22;;;;;;;10.07;4.25;;;2.80;99.90;;;;;;4953526;28;20200;-88
2023/01/17 06:07:48;;;;;;;6.72;3.10;;;2.80;99.90;;;;;;4938267;28;20042;-87
2023/01/17 06:10:16;;;;;;;6.27;2.87;;;2.80;99.90;;;;;;4949704;28;20391;-87
2023/01/17 06:12:43;;;;;;;9.43;2.40;;;2.80;99.90;;;;;;4908626;28;20034;-87
2023/01/17 06:15:10;;;;;;;5.47;2.30;;;2.70;99.90;;;;;;4931410;28;20066;-87
2023/01/17 06:17:36;;;;;;;5.25;2.38;;;2.70;99.90;;;;;;4952532;28;20100;-87
2023/01/17 06:20:03;;;;;;;6.30;2.20;;;2.70;99.90;;;;;;4950223;28;20026;-87
2023/01/17 06:22:29;;;;;;;6.97;3.50;;;2.70;99.90;;;;;;4955957;28;20090;-87
2023/01/17 06:24:55;;;;;;;9.77;4.00;;;2.60;99.90;;;;;;4929319;28;20089;-87
2023/01/17 06:27:21;;;;;;;6.75;3.47;;;2.60;99.90;;;;;;4952729;28;20366;-87
2023/01/17 06:29:47;;;;;;;7.50;3.05;;;2.60;99.90;;;;;;4940635;28;20128;-87
2023/01/17 06:32:13;;;;;;;8.27;3.30;;;2.60;99.90;;;;;;4969039;28;20592;-87
2023/01/17 06:34:39;;;;;;;6.47;2.85;;;2.50;99.90;;;;;;4939942;28;20564;-87
2023/01/17 06:37:05;;;;;;;5.85;2.70;;;2.50;99.90;;;;;;4950631;28;20030;-87
2023/01/17 06:39:31;;;;;;;5.00;2.80;;;2.50;99.90;;;;;;4937662;28;20491;-86
2023/01/17 06:41:58;;;;;;;6.45;2.92;;;2.40;99.90;;;;;;4934054;28;20054;-86
2023/01/17 06:44:25;;;;;;;5.88;2.85;;;2.50;99.90;;;;;;4934550;28;20090;-87
2023/01/17 06:46:51;;;;;;;6.75;3.20;;;2.40;99.90;;;;;;4957945;28;20761;-86
2023/01/17 06:49:17;;;;;;;8.75;4.28;;;2.40;99.90;;;;;;4944493;28;20527;-86
2023/01/17 06:51:43;;;;;;;9.90;4.00;;;2.40;99.90;;;;;;4942245;28;20022;-86
2023/01/17 06:54:09;;;;;;;9.15;3.38;;;2.40;99.90;;;;;;4937764;28;20081;-86
2023/01/17 06:56:36;;;;;;;8.60;3.55;;;2.40;99.90;;;;;;4928691;28;20498;-86
2023/01/17 06:59:02;;;;;;;9.95;4.00;;;2.40;99.90;;;;;;4915214;28;20558;-86
2023/01/17 07:01:28;;;;;;;10.10;3.90;;;2.40;99.90;;;;;;4947733;28;20085;-86
2023/01/17 07:03:54;;;;;;;10.45;4.10;;;2.40;99.90;;;;;;4944998;28;20031;-86
2023/01/17 07:06:20;;;;;;;9.80;4.07;;;2.40;99.90;;;;;;4943040;28;20481;-86
2023/01/17 07:08:46;;;;;;;7.37;3.43;;;2.40;99.90;;;;;;4961449;28;20066;-86
2023/01/17 07:11:12;;;;;;;7.20;3.22;;;2.40;99.90;;;;;;4928645;28;20299;-86
2023/01/17 07:13:38;;;;;;;6.97;3.42;;;2.40;99.90;;;;;;4942938;28;20030;-86
2023/01/17 07:16:07;;;;;;;7.07;3.10;;;2.40;99.90;;;;;;4932301;28;20251;-86
2023/01/17 07:18:33;;;;;;;6.55;2.83;;;2.40;99.90;;;;;;4961153;28;20030;-86
2023/01/17 07:20:59;;;;;;;7.50;3.13;;;2.40;99.90;;;;;;4937235;28;20377;-85
2023/01/17 07:23:25;;;;;;;5.55;3.03;;;2.40;99.90;;;;;;4942644;28;20057;-86
2023/01/17 07:25:56;;;;;;;5.65;2.78;;;2.30;99.90;;;;;;4949048;28;20165;-86
2023/01/17 07:28:22;;;;;;;6.53;2.47;;;2.30;99.90;;;;;;4941542;28;20030;-86
2023/01/17 07:30:48;;;;;;;5.25;2.72;;;2.30;99.90;;;;;;4920458;28;20035;-86
2023/01/17 07:33:14;;;;;;;5.97;2.70;;;2.30;99.90;;;;;;4945232;28;20129;-86
2023/01/17 07:35:40;;;;;;;7.68;3.28;;;2.30;99.90;;;;;;4948630;28;20048;-86
2023/01/17 07:38:10;;;;;;;6.35;3.20;;;2.30;99.90;;;;;;4941952;28;20232;-86
2023/01/17 07:40:38;;;;;;;7.18;3.63;;;2.30;99.90;;;;;;4975798;28;20069;-86
2023/01/17 07:43:12;;;;;;;6.77;3.47;;;2.30;99.90;;;;;;4944050;28;20045;-86
2023/01/17 07:45:43;;;;;;;6.30;3.17;;;2.30;99.90;;;;;;4909240;28;20084;-85
2023/01/17 07:48:09;;;;;;;6.45;2.97;;;2.20;99.90;;;;;;4937631;28;20030;-85
2023/01/17 07:50:36;;;;;;;7.28;3.85;;;2.20;99.90;;;;;;4954996;28;20073;-86
2023/01/17 07:53:02;;;;;;;5.97;2.70;;;2.20;99.90;;;;;;4954829;28;20304;-86
2023/01/17 07:55:29;;;;;;;5.53;2.93;;;2.20;99.90;;;;;;4940950;28;20033;-85
2023/01/17 07:57:54;;;;;;;5.85;2.50;;;2.20;99.90;;;;;;4921045;28;20746;-85
2023/01/17 08:00:21;;;;;;;6.10;2.83;;;2.20;99.90;;;;;;4976785;28;20531;-85
2023/01/17 08:02:48;;;;;;;4.80;2.40;;;2.20;99.90;;;;;;4925088;28;20746;-85
2023/01/17 08:05:15;;;;;;;5.90;2.78;;;2.20;99.90;;;;;;4939558;28;20106;-85
2023/01/17 08:07:40;;;;;;;5.70;2.72;;;2.20;99.90;;;;;;4943823;28;20312;-86
2023/01/17 08:10:11;;;;;;;6.47;3.10;;;2.20;99.90;;;;;;4941510;28;20363;-86
2023/01/17 08:12:37;;;;;;;5.82;2.72;;;2.30;99.90;;;;;;4944397;28;20030;-85
2023/01/17 08:15:04;;;;;;;5.18;2.58;;;2.30;99.90;;;;;;4942793;28;20034;-85
2023/01/17 08:17:30;;;;;;;5.20;2.75;;;2.30;99.90;;;;;;4946710;28;20037;-85
2023/01/17 08:19:55;;;;;;;6.30;2.77;;;2.30;99.90;;;;;;4942189;28;20027;-86
2023/01/17 08:22:21;;;;;;;6.35;2.95;;;2.30;99.90;;;;;;4957606;28;20022;-85
2023/01/17 08:24:47;;;;;;;7.90;3.53;;;2.40;99.90;;;;;;4956717;28;20042;-85
2023/01/17 08:27:13;;;;;;;7.20;3.72;;;2.40;99.90;;;;;;4949934;28;20684;-85
2023/01/17 08:29:41;;;;;;;7.37;3.70;;;2.50;99.90;;;;;;4921078;28;20234;-85
2023/01/17 08:32:07;;;;;;;8.77;3.38;;;2.50;99.90;;;;;;4932921;28;20034;-85
2023/01/17 08:34:33;;;;;;;7.75;3.78;;;2.50;99.90;;;;;;4938377;28;20757;-86
2023/01/17 08:36:58;;;;;;;7.25;3.50;;;2.50;99.90;;;;;;4956127;28;20030;-85
2023/01/17 08:39:26;;;;;;;9.00;3.80;;;2.60;99.90;;;;;;4934873;28;20037;-86
2023/01/17 08:41:52;;;;;;;7.57;3.42;;;2.70;99.90;;;;;;4918958;28;20050;-86
2023/01/17 08:44:18;;;;;;;8.57;3.57;;;2.80;99.90;;;;;;4920682;28;20044;-86
2023/01/17 08:46:44;;;;;;;6.82;3.80;;;2.90;99.90;;;;;;4941517;28;20038;-86
2023/01/17 08:49:11;;;;;;;8.65;3.83;;;3.00;99.90;;;;;;4932000;28;20364;-86
2023/01/17 08:51:37;;;;;;;7.80;4.10;;;3.10;99.90;;;;;;4938771;28;20026;-86
2023/01/17 08:54:03;;;;;;;7.10;3.90;;;3.30;99.90;;;;;;4950444;28;20495;-86
2023/01/17 08:56:28;;;;;;;8.23;3.87;;;3.50;99.90;;;;;;4938521;28;20022;-86
2023/01/17 08:58:54;;;;;;;7.43;3.50;;;3.60;99.90;;;;;;4915002;28;20026;-86
2023/01/17 09:01:20;;;;;;;6.57;3.57;;;3.80;99.90;;;;;;4954684;28;20460;-86
2023/01/17 09:03:48;;;;;;;7.78;3.40;;;3.90;99.90;;;;;;4933146;28;20034;-86
2023/01/17 09:06:15;;;;;;;8.60;4.03;;;4.00;99.90;;;;;;4934250;28;20660;-86
2023/01/17 09:08:45;;;;;;;7.73;3.33;;;4.20;99.90;;;;;;4973313;28;20121;-86
2023/01/17 09:11:14;;;;;;;8.13;3.58;;;4.30;99.90;;;;;;4942068;28;20026;-86
2023/01/17 09:13:40;;;;;;;6.22;3.38;;;4.40;99.90;;;;;;4935948;28;20105;-86
2023/01/17 09:16:06;;;;;;;7.18;3.15;;;4.40;99.90;;;;;;4930953;28;20033;-86
2023/01/17 09:18:33;;;;;;;5.27;3.00;;;4.50;99.90;;;;;;4947489;28;20640;-86
2023/01/17 09:21:07;;;;;;;7.25;3.30;;;4.60;99.90;;;;;;4931383;28;20024;-86
2023/01/17 09:23:33;;;;;;;6.82;3.10;;;4.70;99.90;;;;;;4938755;28;20052;-86
2023/01/17 09:25:59;;;;;;;7.50;3.50;;;4.70;99.90;;;;;;4942644;28;20018;-86
2023/01/17 09:28:26;;;;;;;6.43;3.43;;;4.80;99.90;;;;;;4933847;28;20285;-86
2023/01/17 09:30:53;;;;;;;6.57;3.53;;;4.90;99.90;;;;;;4943322;28;20037;-86
2023/01/17 09:33:19;;;;;;;7.88;3.58;;;5.00;99.90;;;;;;4953500;28;20249;-86
2023/01/17 09:35:45;;;;;;;6.80;3.63;;;5.10;99.90;;;;;;4920406;28;20100;-86
2023/01/17 09:38:12;;;;;;;6.80;3.27;;;5.20;99.90;;;;;;4942944;28;20058;-87
2023/01/17 09:40:43;;;;;;;6.95;3.38;;;5.40;99.90;;;;;;4974533;28;20029;-87
2023/01/17 09:43:39;;;;;;;5.43;3.15;;;5.60;99.90;;;;;;4971198;28;20097;-87
2023/01/17 09:46:13;;;;;;;7.97;3.40;;;5.80;99.90;;;;;;4936326;28;20018;-87
2023/01/17 09:48:39;;;;;;;7.32;3.95;;;6.20;99.90;;;;;;4957453;28;20064;-87
2023/01/17 09:51:18;;;;;;;7.50;2.90;;;6.40;99.90;;;;;;4925780;28;20027;-87
2023/01/17 09:53:44;;;;;;;6.07;3.00;;;6.70;99.90;;;;;;4976136;28;20085;-87
2023/01/17 09:56:34;;;;;;;7.45;3.40;;;7.00;99.90;;;;;;4951774;28;20038;-88
2023/01/17 09:59:28;;;;;;;6.28;3.13;;;7.30;99.90;;;;;;4952279;28;20034;-88
2023/01/17 10:02:03;;;;;;;5.60;3.30;;;7.70;99.90;;;;;;4939135;28;20050;-88
2023/01/17 10:04:50;;;;;;;6.70;3.65;;;8.00;99.90;;;;;;4938132;28;20026;-88
2023/01/17 10:07:54;;;;;;;7.57;3.10;;;8.40;99.90;;;;;;4915182;28;20283;-88
2023/01/17 10:10:29;;;;;;;5.78;3.58;;;8.70;99.90;;;;;;4933468;28;20576;-88
2023/01/17 10:13:12;;;;;;;8.02;4.05;;;9.00;99.90;;;;;;4949013;28;20064;-88
2023/01/17 10:15:46;;;;;;;6.43;3.50;;;9.40;99.90;;;;;;4927267;28;20034;-88
2023/01/17 10:18:15;;;;;;;6.05;3.35;;;9.80;99.90;;;;;;4948803;28;20041;-88
2023/01/17 10:21:07;;;;;;;5.88;3.42;;;10.20;99.90;;;;;;4915557;28;20509;-88
2023/01/17 10:23:42;;;;;;;6.25;3.17;;;10.70;99.90;;;;;;4926574;28;20089;-88
2023/01/17 10:26:20;;;;;;;5.28;3.35;;;11.20;99.90;;;;;;4970747;28;20034;-88
2023/01/17 10:28:49;;;;;;;5.10;3.43;;;11.70;99.90;;;;;;4945108;28;20027;-88
2023/01/17 10:31:32;;;;;;;6.53;3.67;;;12.10;99.90;;;;;;4932640;28;20045;-88
2023/01/17 10:34:38;;;;;;;4.68;3.35;;;12.50;99.90;;;;;;4946530;28;20513;-88
2023/01/17 10:37:29;;;;;;;5.18;3.40;;;13.00;99.90;;;;;;4887675;29;20032;-88
2023/01/17 10:40:00;;;;;;;6.05;3.45;;;13.30;99.90;;;;;;4947839;28;20041;-88
2023/01/17 10:42:41;;;;;;;6.40;3.47;;;13.50;99.90;;;;;;4957459;28;20354;-88
2023/01/17 10:45:19;;;;;;;5.85;3.72;;;13.60;99.90;;;;;;4969096;28;20798;-88
2023/01/17 10:47:52;;;;;;;5.22;3.67;;;13.60;99.90;;;;;;4925531;28;20026;-88
2023/01/17 10:50:21;;;;;;;6.57;3.45;;;13.50;99.90;;;;;;4957354;28;20383;-88
2023/01/17 10:53:02;;;;;;;5.35;3.70;;;13.50;99.90;;;;;;4933308;28;20034;-88
2023/01/17 10:55:52;;;;;;;6.97;4.17;;;13.50;99.90;;;;;;4964190;28;20668;-88
2023/01/17 10:58:18;;;;;;;7.75;3.70;;;13.50;99.90;;;;;;4937555;28;20022;-88
2023/01/17 11:01:01;;;;;;;6.10;4.07;;;13.60;99.90;;;;;;4940511;28;20014;-89
2023/01/17 11:03:27;;;;;;;5.95;3.85;;;13.80;99.90;;;;;;4954654;28;21710;-89
2023/01/17 11:06:22;;;;;;;6.00;4.00;;;13.90;99.90;;;;;;4924789;28;20435;-89
2023/01/17 11:08:57;;;;;;;6.40;3.80;;;14.10;99.90;;;;;;4915883;28;20499;-88
2023/01/17 11:11:29;;;;;;;6.18;3.88;;;14.30;99.90;;;;;;4954706;28;20359;-88
2023/01/17 11:13:57;;;;;;;6.68;4.13;;;14.60;99.90;;;;;;4959585;28;20102;-88
2023/01/17 11:16:26;;;;;;;6.30;4.22;;;14.80;99.90;;;;;;4951383;28;20061;-88
2023/01/17 11:19:26;;;;;;;6.15;4.13;;;15.00;99.90;;;;;;4975789;28;20054;-88
2023/01/17 11:21:56;;;;;;;4.63;3.23;;;15.30;99.90;;;;;;4942149;28;20034;-88
2023/01/17 11:24:32;;;;;;;6.43;3.65;;;15.60;99.90;;;;;;4926220;28;22361;-88
2023/01/17 11:26:58;;;;;;;7.72;3.80;;;15.80;99.90;;;;;;4959477;28;20030;-88
2023/01/17 11:29:34;;;;;;;5.88;3.50;;;16.10;99.90;;;;;;4971421;28;20030;-88
2023/01/17 11:32:25;;;;;;;6.30;3.92;;;16.30;99.90;;;;;;4956826;28;20034;-88
2023/01/17 11:35:20;;;;;;;5.90;3.70;;;16.50;99.90;;;;;;4957208;28;20419;-88
2023/01/17 11:37:52;;;;;;;5.85;3.90;;;16.70;99.90;;;;;;4954955;28;20123;-88
2023/01/17 11:40:25;;;;;;;5.50;3.63;;;16.70;99.90;;;;;;4936665;28;21241;-88
2023/01/17 11:43:04;;;;;;;5.88;3.30;;;16.90;99.90;;;;;;4955591;28;20050;-88
2023/01/17 11:45:33;;;;;;;6.03;3.15;;;17.00;99.90;;;;;;4953507;28;20252;-88
2023/01/17 11:48:08;;;;;;;6.60;3.23;;;17.10;99.90;;;;;;4938225;28;20030;-88
2023/01/17 11:50:36;;;;;;;6.15;3.20;;;17.10;99.90;;;;;;4953635;28;20018;-89
2023/01/17 11:53:14;;;;;;;6.38;3.75;;;17.20;99.90;;;;;;4919598;28;20073;-88
2023/01/17 11:56:07;;;;;;;6.63;3.65;;;17.30;99.90;;;;;;4931399;28;20030;-88
2023/01/17 11:58:37;;;;;;;4.43;2.92;;;17.40;99.90;;;;;;4958191;28;20031;-89
2023/01/17 12:01:24;;;;;;;5.07;2.70;;;17.50;99.90;;;;;;4948595;28;20058;-89
2023/01/17 12:04:06;;;;;;;4.50;2.67;;;17.70;99.90;;;;;;4946426;28;20135;-89
2023/01/17 12:06:51;;;;;;;5.00;2.85;;;17.70;99.90;;;;;;4943843;28;20042;-88
2023/01/17 12:10:03;;;;;;;4.22;2.63;;;17.70;99.90;;;;;;4947463;28;20609;-88
2023/01/17 12:15:44;;;;;;;5.27;2.67;;;17.80;99.90;;;;;;4947944;28;20033;-88
2023/01/17 12:18:41;;;;;;;4.68;2.70;;;17.90;99.90;;;;;;4937611;28;20031;-88
2023/01/17 12:21:19;;;;;;;4.35;2.55;;;17.90;99.90;;;;;;4940632;28;20090;-88
2023/01/17 12:24:11;;;;;;;5.95;2.85;;;18.00;99.90;;;;;;4941210;28;20033;-88
2023/01/17 12:26:42;;;;;;;4.07;2.25;;;18.00;99.90;;;;;;4926674;28;20033;-88
2023/01/17 12:29:21;;;;;;;4.77;2.60;;;17.90;99.90;;;;;;4944998;28;20057;-88
2023/01/17 12:32:05;;;;;;;4.00;1.95;;;17.80;99.90;;;;;;4949571;28;20034;-88
2023/01/17 12:34:45;;;;;;;4.68;2.10;;;17.70;99.90;;;;;;4942933;28;20089;-89
2023/01/17 12:37:24;;;;;;;5.13;2.00;;;17.60;99.90;;;;;;4939721;28;20045;-89
2023/01/17 12:39:59;;;;;;;3.92;1.70;;;17.50;99.90;;;;;;4935278;28;20049;-89
2023/01/17 12:42:31;;;;;;;3.33;1.50;;;17.30;99.90;;;;;;4960466;28;20074;-89
2023/01/17 12:45:24;;;;;;;3.10;1.60;;;17.30;99.90;;;;;;4929146;28;20026;-88
2023/01/17 12:47:58;;;;;;;3.30;1.52;;;17.20;99.90;;;;;;4949612;28;20019;-88
2023/01/17 12:50:43;;;;;;;3.33;1.50;;;17.20;99.90;;;;;;4969791;28;20449;-88
2023/01/17 12:53:31;;;;;;;3.22;1.67;;;17.10;99.90;;;;;;4937297;28;20101;-87
2023/01/17 12:56:07;;;;;;;3.53;1.50;;;17.10;99.90;;;;;;4949951;28;20046;-88
2023/01/17 12:58:42;;;;;;;2.72;1.27;;;17.00;99.90;;;;;;4943035;28;20121;-88
2023/01/17 13:01:26;;;;;;;5.05;1.30;;;17.00;99.90;;;;;;4972260;28;20027;-88
2023/01/17 13:03:59;;;;;;;2.22;1.30;;;16.90;99.90;;;;;;4951826;28;20475;-88
2023/01/17 13:06:50;;;;;;;5.00;1.60;;;16.70;99.90;;;;;;4949379;28;20673;-88
2023/01/17 13:09:20;;;;;;;3.73;1.50;;;16.70;99.90;;;;;;4952137;28;20037;-88
2023/01/17 13:11:55;;;;;;;2.88;1.40;;;16.50;99.90;;;;;;4916176;28;20442;-87
2023/01/17 13:14:20;;;;;;;2.45;1.20;;;16.50;99.90;;;;;;4939184;28;20948;-87
2023/01/17 13:16:49;;;;;;;2.50;1.25;;;16.40;99.90;;;;;;4955008;28;20102;-87
2023/01/17 13:19:46;;;;;;;2.47;1.30;;;16.50;99.90;;;;;;4954834;28;20030;-88
2023/01/17 13:22:16;;;;;;;1.65;1.13;;;16.60;99.90;;;;;;4950964;28;20507;-87
2023/01/17 13:24:59;;;;;;;3.10;1.30;;;16.70;99.90;;;;;;4942897;28;20027;-88
2023/01/17 13:28:02;;;;;;;2.30;1.30;;;16.90;99.90;;;;;;4925150;28;20560;-87
2023/01/17 13:30:33;;;;;;;2.17;1.20;;;17.10;99.90;;;;;;4925474;28;20649;-87
2023/01/17 13:33:26;;;;;;;2.90;0.80;;;17.30;99.90;;;;;;4950001;28;20042;-87
2023/01/17 13:36:24;;;;;;;5.38;1.65;;;17.40;99.90;;;;;;4969415;28;20109;-87
2023/01/17 13:38:56;;;;;;;2.80;1.40;;;17.50;99.90;;;;;;4906874;28;20049;-87
2023/01/17 13:41:51;;;;;;;4.32;2.17;;;17.50;99.90;;;;;;4928785;28;20253;-87
2023/01/17 13:44:20;;;;;;;3.72;1.48;;;17.30;99.90;;;;;;4954038;28;20197;-87
2023/01/17 13:47:28;;;;;;;3.23;1.40;;;17.10;99.90;;;;;;4930612;28;20045;-87
2023/01/17 13:49:55;;;;;;;2.95;1.17;;;16.90;99.10;;;;;;4972778;28;20018;-87
2023/01/17 13:52:23;;;;;;;2.97;1.38;;;16.70;99.90;;;;;;4956194;28;20689;-87
2023/01/17 13:54:51;;;;;;;2.70;1.30;;;16.70;99.90;;;;;;4933035;28;20512;-87
2023/01/17 13:57:31;;;;;;;4.53;1.23;;;16.60;99.90;;;;;;4931305;28;20100;-87
2023/01/17 14:00:26;;;;;;;2.90;1.13;;;16.60;99.90;;;;;;4955686;28;20046;-86
2023/01/17 14:02:52;;;;;;;1.55;0.98;;;16.40;96.60;;;;;;4927246;28;20053;-87
2023/01/17 14:05:54;;;;;;;3.05;1.15;;;16.20;99.90;;;;;;4930607;28;20134;-87
2023/01/17 14:08:21;;;;;;;2.38;1.23;;;16.00;97.20;;;;;;4950664;28;20283;-86
2023/01/17 14:10:47;;;;;;;2.83;1.10;;;15.80;99.90;;;;;;4950773;28;20519;-86
2023/01/17 14:13:35;;;;;;;2.77;1.00;;;15.60;99.40;;;;;;4943595;28;20968;-86
2023/01/17 14:16:21;;;;;;;2.83;1.15;;;15.40;97.40;;;;;;4963004;28;20114;-85
2023/01/17 14:18:48;;;;;;;2.22;1.00;;;15.10;99.00;;;;;;4969805;28;20625;-85
2023/01/17 14:21:32;;;;;;;2.53;1.10;;;15.00;99.50;;;;;;4955191;28;20173;-85
2023/01/17 14:24:11;;;;;;;1.92;1.20;;;14.80;97.20;;;;;;4953616;28;20093;-85
2023/01/17 14:26:43;;;;;;;1.87;1.10;;;14.60;97.90;;;;;;4958939;28;20031;-85
2023/01/17 14:29:46;;;;;;;3.08;0.90;;;14.40;98.30;;;;;;4942759;28;20107;-85
2023/01/17 14:32:15;;;;;;;2.22;0.90;;;14.20;96.70;;;;;;4941170;28;20043;-85
2023/01/17 14:34:43;;;;;;;1.55;0.85;;;13.90;97.10;;;;;;4933352;28;21255;-85
2023/01/17 14:37:26;;;;;;;2.50;1.00;;;13.60;97.00;;;;;;4972284;28;20039;-85
2023/01/17 14:39:52;;;;;;;2.90;0.97;;;13.40;96.50;;;;;;4950361;28;20905;-85
2023/01/17 14:42:22;;;;;;;2.13;0.90;;;13.10;96.70;;;;;;4956360;28;20034;-85
2023/01/17 14:44:51;;;;;;;2.63;0.80;;;12.90;95.90;;;;;;4930455;28;20306;-85